createdAt,value
2023-09-06T00:01:51.237Z,27.62
2023-09-06T00:04:18.494Z,27.60
2023-09-06T00:06:45.829Z,27.62
2023-09-06T00:09:12.960Z,27.61
2023-09-06T00:11:41.166Z,27.61
2023-09-06T00:14:08.347Z,27.58
2023-09-06T00:16:35.563Z,27.59
2023-09-06T00:19:03.033Z,27.61
2023-09-06T00:21:30.817Z,27.59
2023-09-06T00:23:57.974Z,27.57
2023-09-06T00:26:25.100Z,27.56
2023-09-06T00:28:52.758Z,27.55
2023-09-06T00:31:19.931Z,27.56
2023-09-06T00:33:47.791Z,27.54
2023-09-06T00:36:15.971Z,27.54
2023-09-06T00:38:43.032Z,27.53
2023-09-06T00:41:11.389Z,27.53
2023-09-06T00:43:38.821Z,27.51
2023-09-06T00:46:09.116Z,27.48
2023-09-06T00:48:37.140Z,27.45
2023-09-06T00:51:06.055Z,27.40
2023-09-06T00:53:34.000Z,27.36
2023-09-06T00:56:04.850Z,27.36
2023-09-06T00:58:33.634Z,27.33
2023-09-06T01:01:01.865Z,27.30
2023-09-06T01:03:29.123Z,27.23
2023-09-06T01:06:05.720Z,27.24
2023-09-06T01:08:48.074Z,27.24
2023-09-06T01:11:21.324Z,27.23
2023-09-06T01:13:53.892Z,27.21
2023-09-06T01:16:30.532Z,27.17
2023-09-06T01:19:02.333Z,27.17
2023-09-06T01:21:53.918Z,27.11
2023-09-06T01:24:22.449Z,27.08
2023-09-06T01:26:50.505Z,27.05
2023-09-06T01:29:19.393Z,27.06
2023-09-06T01:31:46.587Z,27.01
2023-09-06T01:34:13.801Z,27.00
2023-09-06T01:36:41.255Z,26.96
2023-09-06T01:39:09.741Z,26.96
2023-09-06T01:41:36.954Z,26.92
2023-09-06T01:44:04.328Z,26.92
2023-09-06T01:46:31.664Z,26.89
2023-09-06T01:49:00.675Z,26.88
2023-09-06T01:51:28.225Z,26.83
2023-09-06T01:53:55.580Z,26.81
2023-09-06T01:56:22.798Z,26.80
2023-09-06T01:58:50.286Z,26.75
2023-09-06T02:01:17.607Z,26.74
2023-09-06T02:03:44.926Z,26.72
2023-09-06T02:06:12.532Z,26.71
2023-09-06T02:08:42.641Z,26.71
2023-09-06T02:11:09.925Z,26.69
2023-09-06T02:13:37.473Z,26.66
2023-09-06T02:16:06.207Z,26.66
2023-09-06T02:18:36.541Z,26.64
2023-09-06T02:21:06.566Z,26.60
2023-09-06T02:23:33.664Z,26.59
2023-09-06T02:26:00.705Z,26.58
2023-09-06T02:28:28.003Z,26.58
2023-09-06T02:30:55.296Z,26.57
2023-09-06T02:33:22.512Z,26.61
2023-09-06T02:35:51.016Z,26.62
2023-09-06T02:38:18.786Z,26.62
2023-09-06T02:40:46.039Z,26.61
2023-09-06T02:43:17.737Z,26.57
2023-09-06T02:45:51.734Z,26.56
2023-09-06T02:48:20.463Z,26.50
2023-09-06T02:50:48.166Z,26.52
2023-09-06T02:53:22.001Z,26.47
2023-09-06T02:55:53.346Z,26.46
2023-09-06T02:58:28.328Z,26.44
2023-09-06T03:01:06.495Z,26.43
2023-09-06T03:03:34.004Z,26.41
2023-09-06T03:06:06.272Z,26.42
2023-09-06T03:08:35.268Z,26.41
2023-09-06T03:11:03.659Z,26.38
2023-09-06T03:13:33.563Z,26.39
2023-09-06T03:16:01.453Z,26.38
2023-09-06T03:18:31.163Z,26.36
2023-09-06T03:21:05.965Z,26.34
2023-09-06T03:23:33.901Z,26.31
2023-09-06T03:26:02.842Z,26.31
2023-09-06T03:28:42.668Z,26.33
2023-09-06T03:31:15.626Z,26.30
2023-09-06T03:33:42.888Z,26.29
2023-09-06T03:36:11.206Z,26.29
2023-09-06T03:38:39.109Z,26.28
2023-09-06T03:41:08.787Z,26.29
2023-09-06T03:43:36.566Z,26.26
2023-09-06T03:46:11.345Z,26.26
2023-09-06T03:48:39.013Z,26.25
2023-09-06T03:51:06.270Z,26.25
2023-09-06T03:53:35.157Z,26.24
2023-09-06T03:56:02.547Z,26.19
2023-09-06T03:58:46.193Z,26.20
2023-09-06T04:01:17.221Z,26.18
2023-09-06T04:03:52.017Z,26.14
2023-09-06T04:06:20.738Z,26.13
2023-09-06T04:08:48.060Z,26.12
2023-09-06T04:11:15.571Z,26.11
2023-09-06T04:13:44.267Z,26.09
2023-09-06T04:16:12.046Z,26.07
2023-09-06T04:18:43.743Z,26.09
2023-09-06T04:21:11.445Z,26.04
2023-09-06T04:23:41.674Z,26.03
2023-09-06T04:26:11.466Z,26.04
2023-09-06T04:28:38.590Z,26.00
2023-09-06T04:31:09.225Z,26.01
2023-09-06T04:33:39.481Z,26.00
2023-09-06T04:36:27.078Z,25.98
2023-09-06T04:38:59.671Z,25.98
2023-09-06T04:41:28.402Z,25.95
2023-09-06T04:44:00.303Z,25.97
2023-09-06T04:46:28.939Z,25.93
2023-09-06T04:48:56.664Z,25.92
2023-09-06T04:51:24.959Z,25.93
2023-09-06T04:53:52.784Z,25.91
2023-09-06T04:56:27.176Z,25.95
2023-09-06T04:58:54.489Z,25.91
2023-09-06T05:01:21.644Z,25.93
2023-09-06T05:03:48.985Z,25.93
2023-09-06T05:06:16.362Z,25.93
2023-09-06T05:08:44.852Z,25.94
2023-09-06T05:11:17.271Z,25.94
2023-09-06T05:13:47.472Z,25.90
2023-09-06T05:16:14.679Z,25.91
2023-09-06T05:18:41.837Z,25.92
2023-09-06T05:21:09.170Z,25.87
2023-09-06T05:23:38.546Z,25.85
2023-09-06T05:26:05.877Z,25.82
2023-09-06T05:28:44.086Z,25.80
2023-09-06T05:31:11.810Z,25.81
2023-09-06T05:33:44.554Z,25.79
2023-09-06T05:36:14.598Z,25.79
2023-09-06T05:38:42.789Z,25.82
2023-09-06T05:41:13.230Z,25.79
2023-09-06T05:43:43.680Z,25.80
2023-09-06T05:46:25.793Z,25.82
2023-09-06T05:48:59.735Z,25.80
2023-09-06T05:51:30.134Z,25.82
2023-09-06T05:54:00.338Z,25.83
2023-09-06T05:56:28.573Z,25.85
2023-09-06T05:58:56.039Z,25.87
2023-09-06T06:01:23.254Z,25.89
2023-09-06T06:03:50.380Z,25.91
2023-09-06T06:06:18.832Z,25.93
2023-09-06T06:08:46.034Z,25.96
2023-09-06T06:11:13.148Z,25.98
2023-09-06T06:13:40.342Z,26.00
2023-09-06T06:16:08.416Z,26.05
2023-09-06T06:18:35.904Z,26.07
2023-09-06T06:21:05.372Z,26.09
2023-09-06T06:23:32.800Z,26.10
2023-09-06T06:25:59.789Z,26.18
2023-09-06T06:28:26.946Z,26.20
2023-09-06T06:30:54.024Z,26.26
2023-09-06T06:33:21.530Z,26.34
2023-09-06T06:35:48.829Z,26.39
2023-09-06T06:38:16.389Z,26.48
2023-09-06T06:40:43.615Z,26.55
2023-09-06T06:43:10.736Z,26.59
2023-09-06T06:45:37.809Z,26.68
2023-09-06T06:48:05.093Z,26.76
2023-09-06T06:50:32.275Z,26.85
2023-09-06T06:52:59.377Z,26.94
2023-09-06T06:55:26.424Z,27.04
2023-09-06T06:57:53.601Z,27.10
2023-09-06T07:00:20.712Z,27.24
2023-09-06T07:02:47.997Z,27.34
2023-09-06T07:05:15.281Z,27.46
2023-09-06T07:07:42.469Z,27.58
2023-09-06T07:10:10.203Z,27.72
2023-09-06T07:12:37.623Z,27.84
2023-09-06T07:15:05.149Z,27.97
2023-09-06T07:17:33.294Z,28.09
2023-09-06T07:20:01.018Z,28.25
2023-09-06T07:22:28.232Z,28.35
2023-09-06T07:24:55.317Z,28.50
2023-09-06T07:27:22.501Z,28.63
2023-09-06T07:29:49.780Z,28.74
2023-09-06T07:32:16.820Z,28.88
2023-09-06T07:34:45.353Z,29.03
2023-09-06T07:37:12.392Z,29.17
2023-09-06T07:39:39.499Z,29.32
2023-09-06T07:42:06.824Z,29.45
2023-09-06T07:44:34.391Z,29.56
2023-09-06T07:47:02.035Z,29.70
2023-09-06T07:49:32.149Z,29.83
2023-09-06T07:52:00.497Z,29.96
2023-09-06T07:54:27.538Z,30.08
2023-09-06T07:56:54.609Z,30.21
2023-09-06T07:59:23.834Z,30.35
2023-09-06T08:01:51.155Z,30.48
2023-09-06T08:04:22.275Z,30.64
2023-09-06T08:06:49.620Z,30.75
2023-09-06T08:09:16.959Z,30.87
2023-09-06T08:11:44.144Z,31.01
2023-09-06T08:14:11.170Z,31.16
2023-09-06T08:16:38.299Z,31.28
2023-09-06T08:19:06.142Z,31.38
2023-09-06T08:21:33.390Z,31.48
2023-09-06T08:24:03.515Z,31.62
2023-09-06T08:26:30.857Z,31.72
2023-09-06T08:28:58.084Z,31.87
2023-09-06T08:31:25.209Z,31.93
2023-09-06T08:33:52.392Z,32.04
2023-09-06T08:36:19.751Z,32.10
2023-09-06T08:38:46.778Z,32.15
2023-09-06T08:41:13.766Z,32.23
2023-09-06T08:43:44.716Z,32.27
2023-09-06T08:46:25.332Z,32.33
2023-09-06T08:48:54.205Z,32.38
2023-09-06T08:51:21.780Z,32.42
2023-09-06T08:53:49.628Z,32.47
2023-09-06T08:56:16.966Z,32.36
2023-09-06T08:58:44.398Z,32.26
2023-09-06T09:01:11.604Z,32.26
2023-09-06T09:03:38.977Z,32.07
2023-09-06T09:06:10.934Z,31.88
2023-09-06T09:08:38.264Z,31.77
2023-09-06T09:11:31.608Z,31.51
2023-09-06T09:14:02.285Z,31.35
2023-09-06T09:16:30.424Z,31.23
2023-09-06T09:18:57.611Z,31.10
2023-09-06T09:21:24.714Z,31.10
2023-09-06T09:23:57.090Z,30.95
2023-09-06T09:26:24.253Z,30.87
2023-09-06T09:28:51.562Z,30.87
2023-09-06T09:31:18.952Z,30.74
2023-09-06T09:33:51.995Z,30.62
2023-09-06T09:36:19.990Z,30.57
2023-09-06T09:38:54.275Z,30.48
2023-09-06T09:41:21.671Z,30.35
2023-09-06T09:43:48.745Z,30.28
2023-09-06T09:46:28.013Z,30.24
2023-09-06T09:49:00.939Z,30.23
2023-09-06T09:51:28.996Z,30.22
2023-09-06T09:53:56.877Z,30.21
2023-09-06T09:56:24.314Z,30.25
2023-09-06T09:58:54.230Z,30.29
2023-09-06T10:01:22.224Z,30.24
2023-09-06T10:03:51.431Z,30.26
2023-09-06T10:06:19.846Z,30.21
2023-09-06T10:08:49.062Z,30.12
2023-09-06T10:11:18.931Z,30.22
2023-09-06T10:13:47.704Z,30.17
2023-09-06T10:16:15.729Z,30.16
2023-09-06T10:18:43.165Z,29.91
2023-09-06T10:21:10.711Z,29.69
2023-09-06T10:23:44.277Z,29.76
2023-09-06T10:26:11.624Z,29.71
2023-09-06T10:28:38.864Z,29.68
2023-09-06T10:31:12.083Z,29.35
2023-09-06T10:33:41.191Z,29.38
2023-09-06T10:36:15.479Z,29.34
2023-09-06T10:38:55.826Z,29.17
2023-09-06T10:41:28.080Z,28.95
2023-09-06T10:44:03.179Z,28.95
2023-09-06T10:46:34.873Z,28.97
2023-09-06T10:49:14.787Z,29.00
2023-09-06T10:52:03.022Z,28.96
2023-09-06T10:54:35.894Z,29.06
2023-09-06T10:57:06.476Z,29.10
2023-09-06T10:59:38.218Z,29.18
2023-09-06T11:02:22.660Z,29.23
2023-09-06T11:05:03.694Z,29.22
2023-09-06T11:07:49.178Z,29.15
2023-09-06T11:10:24.218Z,29.15
2023-09-06T11:12:55.404Z,29.01
2023-09-06T11:15:26.586Z,29.06
2023-09-06T11:18:01.378Z,29.14
2023-09-06T11:20:28.449Z,29.15
2023-09-06T11:23:00.020Z,29.27
2023-09-06T11:25:30.121Z,29.35
2023-09-06T11:28:02.202Z,29.39
2023-09-06T11:30:33.568Z,29.32
2023-09-06T11:33:00.815Z,29.06
2023-09-06T11:35:36.495Z,28.98
2023-09-06T11:38:05.668Z,28.96
2023-09-06T11:40:36.191Z,29.08
2023-09-06T11:43:11.814Z,29.11
2023-09-06T11:45:44.794Z,29.17
2023-09-06T11:48:12.497Z,29.07
2023-09-06T11:50:41.950Z,29.13
2023-09-06T11:53:11.857Z,29.06
2023-09-06T11:55:43.060Z,28.94
2023-09-06T11:58:19.897Z,28.85
2023-09-06T12:00:52.497Z,28.78
2023-09-06T12:03:23.464Z,28.81
2023-09-06T12:05:54.694Z,28.97
2023-09-06T12:08:24.072Z,29.01
2023-09-06T12:11:06.799Z,29.00
2023-09-06T12:13:36.571Z,28.92
2023-09-06T12:16:05.736Z,28.79
2023-09-06T12:18:34.907Z,28.83
2023-09-06T12:21:04.343Z,28.81
2023-09-06T12:23:37.298Z,28.98
2023-09-06T12:26:08.247Z,29.04
2023-09-06T12:28:35.657Z,28.83
2023-09-06T12:33:37.281Z,28.72
2023-09-06T12:36:06.529Z,28.81
2023-09-06T12:38:33.881Z,28.88
2023-09-06T12:41:06.210Z,28.98
2023-09-06T12:43:36.364Z,29.04
2023-09-06T12:46:07.791Z,29.07
2023-09-06T12:48:36.342Z,29.14
2023-09-06T12:51:04.636Z,28.89
2023-09-06T12:53:33.661Z,28.75
2023-09-06T12:56:01.043Z,28.69
2023-09-06T12:58:28.879Z,28.42
2023-09-06T13:00:58.368Z,28.38
2023-09-06T13:03:25.715Z,28.45
2023-09-06T13:05:53.081Z,28.37
2023-09-06T13:08:20.983Z,28.47
2023-09-06T13:10:48.636Z,28.41
2023-09-06T13:13:15.721Z,28.11
2023-09-06T13:15:42.822Z,28.09
2023-09-06T13:18:10.017Z,28.18
2023-09-06T13:20:37.956Z,28.06
2023-09-06T13:23:05.069Z,28.05
2023-09-06T13:25:33.644Z,28.07
2023-09-06T13:28:00.703Z,28.22
2023-09-06T13:30:27.870Z,28.31
2023-09-06T13:32:55.041Z,28.40
2023-09-06T13:35:22.053Z,28.48
2023-09-06T13:37:49.011Z,28.57
2023-09-06T13:40:18.498Z,28.56
2023-09-06T13:42:45.802Z,28.37
2023-09-06T13:45:13.088Z,28.35
2023-09-06T13:47:40.313Z,28.24
2023-09-06T13:50:08.845Z,28.16
2023-09-06T13:52:35.974Z,28.24
2023-09-06T13:55:03.083Z,28.26
2023-09-06T13:57:30.403Z,28.32
2023-09-06T13:59:57.546Z,28.40
2023-09-06T14:02:26.841Z,28.31
2023-09-06T14:04:57.383Z,28.15
2023-09-06T14:07:24.849Z,27.94
2023-09-06T14:09:51.874Z,27.78
2023-09-06T14:12:18.900Z,27.86
2023-09-06T14:14:45.983Z,27.98
2023-09-06T14:17:13.150Z,28.10
2023-09-06T14:19:40.176Z,28.20
2023-09-06T14:22:11.347Z,28.00
2023-09-06T14:24:39.847Z,28.03
2023-09-06T14:27:07.011Z,27.85
2023-09-06T14:29:34.199Z,27.71
2023-09-06T14:32:02.204Z,27.78
2023-09-06T14:34:29.320Z,27.87
2023-09-06T14:36:56.822Z,27.96
2023-09-06T14:39:24.653Z,27.89
2023-09-06T14:41:51.962Z,27.90
2023-09-06T14:44:19.212Z,27.89
2023-09-06T14:46:46.631Z,27.89
2023-09-06T14:49:13.899Z,27.82
2023-09-06T14:51:41.432Z,27.71
2023-09-06T14:54:08.826Z,27.77
2023-09-06T14:56:37.831Z,27.88
2023-09-06T14:59:06.154Z,27.63
2023-09-06T15:01:34.825Z,27.49
2023-09-06T15:04:02.324Z,27.37
2023-09-06T15:06:40.061Z,27.41
2023-09-06T15:09:16.492Z,27.45
2023-09-06T15:11:43.932Z,27.34
2023-09-06T15:14:11.964Z,27.33
2023-09-06T15:16:39.153Z,27.23
2023-09-06T15:19:07.019Z,27.42
2023-09-06T15:21:34.311Z,27.50
2023-09-06T15:24:01.862Z,27.47
2023-09-06T15:26:28.917Z,27.58
2023-09-06T15:28:55.911Z,27.67
2023-09-06T15:31:23.009Z,27.67
2023-09-06T15:33:50.304Z,27.53
2023-09-06T15:36:17.471Z,27.48
2023-09-06T15:38:45.055Z,27.62
2023-09-06T15:41:18.710Z,27.65
2023-09-06T15:43:48.737Z,27.73
2023-09-06T15:46:15.887Z,27.77
2023-09-06T15:48:43.553Z,27.82
2023-09-06T15:51:10.862Z,27.70
2023-09-06T15:53:38.010Z,27.83
2023-09-06T15:56:05.505Z,27.85
2023-09-06T15:58:32.927Z,27.92
2023-09-06T16:01:00.501Z,27.91
2023-09-06T16:03:28.189Z,27.92
2023-09-06T16:05:56.333Z,27.94
2023-09-06T16:08:24.928Z,27.91
2023-09-06T16:10:55.180Z,27.92
2023-09-06T16:13:22.424Z,27.96
2023-09-06T16:15:51.333Z,27.91
2023-09-06T16:18:19.278Z,27.99
2023-09-06T16:20:46.480Z,28.03
2023-09-06T16:23:13.708Z,27.89
2023-09-06T16:25:40.796Z,27.93
2023-09-06T16:28:08.311Z,27.98
2023-09-06T16:30:38.383Z,27.91
2023-09-06T16:33:07.046Z,27.87
2023-09-06T16:35:37.014Z,27.94
2023-09-06T16:38:08.022Z,27.98
2023-09-06T16:40:35.991Z,27.93
2023-09-06T16:43:05.819Z,27.92
2023-09-06T16:45:33.005Z,27.88
2023-09-06T16:48:00.110Z,27.96
2023-09-06T16:50:27.856Z,28.02
2023-09-06T16:52:55.343Z,28.00
2023-09-06T16:55:22.635Z,27.86
2023-09-06T16:57:54.237Z,27.84
2023-09-06T17:00:23.147Z,27.85
2023-09-06T17:02:53.910Z,27.79
2023-09-06T17:05:21.865Z,27.74
2023-09-06T17:07:50.139Z,27.61
2023-09-06T17:10:20.562Z,27.68
2023-09-06T17:12:48.307Z,27.67
2023-09-06T17:15:20.704Z,27.65
2023-09-06T17:17:49.660Z,27.69
2023-09-06T17:20:19.383Z,27.68
2023-09-06T17:22:47.311Z,27.71
2023-09-06T17:25:14.453Z,27.75
2023-09-06T17:27:43.774Z,27.78
2023-09-06T17:30:22.200Z,27.84
2023-09-06T17:33:12.448Z,27.93
2023-09-06T17:35:41.448Z,27.90
2023-09-06T17:38:15.797Z,27.92
2023-09-06T17:40:45.898Z,27.95
2023-09-06T17:43:14.740Z,27.84
2023-09-06T17:45:42.033Z,27.84
2023-09-06T17:48:12.198Z,27.84
2023-09-06T17:50:50.821Z,27.79
2023-09-06T17:53:21.647Z,27.83
2023-09-06T17:55:51.579Z,27.90
2023-09-06T17:58:19.332Z,27.89
2023-09-06T18:00:48.336Z,27.88
2023-09-06T18:03:19.309Z,27.91
2023-09-06T18:05:57.227Z,27.87
2023-09-06T18:08:28.308Z,27.76
2023-09-06T18:10:56.142Z,27.75
2023-09-06T18:13:23.196Z,27.78
2023-09-06T18:15:54.119Z,27.76
2023-09-06T18:18:21.356Z,27.72
2023-09-06T18:20:48.646Z,27.77
2023-09-06T18:23:16.026Z,27.76
2023-09-06T18:25:43.116Z,27.77
2023-09-06T18:28:10.886Z,27.72
2023-09-06T18:30:45.940Z,27.67
2023-09-06T18:33:13.463Z,27.58
2023-09-06T18:35:40.455Z,27.50
2023-09-06T18:38:08.406Z,27.48
2023-09-06T18:40:35.545Z,27.54
2023-09-06T18:43:03.643Z,27.65
2023-09-06T18:45:31.872Z,27.63
2023-09-06T18:47:59.280Z,27.61
2023-09-06T18:50:26.465Z,27.63
2023-09-06T18:52:55.418Z,27.61
2023-09-06T18:55:22.443Z,27.65
2023-09-06T18:58:04.723Z,27.68
2023-09-06T19:00:35.575Z,27.63
2023-09-06T19:03:07.125Z,27.64
2023-09-06T19:05:37.970Z,27.59
2023-09-06T19:08:05.527Z,27.65
2023-09-06T19:10:34.515Z,27.66
2023-09-06T19:13:01.686Z,27.70
2023-09-06T19:15:29.827Z,27.61
2023-09-06T19:17:56.908Z,27.60
2023-09-06T19:20:24.064Z,27.66
2023-09-06T19:22:54.435Z,27.68
2023-09-06T19:25:25.791Z,27.72
2023-09-06T19:27:53.635Z,27.66
2023-09-06T19:30:21.021Z,27.64
2023-09-06T19:32:48.134Z,27.63
2023-09-06T19:35:15.571Z,27.55
2023-09-06T19:37:42.818Z,27.45
2023-09-06T19:40:10.296Z,27.36
2023-09-06T19:42:37.315Z,27.40
2023-09-06T19:45:04.576Z,27.43
2023-09-06T19:47:31.735Z,27.42
2023-09-06T19:49:58.946Z,27.49
2023-09-06T19:52:25.979Z,27.49
2023-09-06T19:55:00.177Z,27.53
2023-09-06T19:57:27.362Z,27.55
2023-09-06T19:59:54.470Z,27.52
2023-09-06T20:02:21.865Z,27.48
2023-09-06T20:04:49.411Z,27.45
2023-09-06T20:07:16.610Z,27.36
2023-09-06T20:09:44.959Z,27.40
2023-09-06T20:12:12.317Z,27.34
2023-09-06T20:14:41.286Z,27.37
2023-09-06T20:17:08.449Z,27.35
2023-09-06T20:19:39.092Z,27.32
2023-09-06T20:22:06.475Z,27.36
2023-09-06T20:24:33.486Z,27.32
2023-09-06T20:27:00.634Z,27.39
2023-09-06T20:29:29.220Z,27.44
2023-09-06T20:31:57.859Z,27.44
2023-09-06T20:34:25.125Z,27.46
2023-09-06T20:36:52.225Z,27.47
2023-09-06T20:39:19.871Z,27.53
2023-09-06T20:41:47.993Z,27.51
2023-09-06T20:44:15.325Z,27.54
2023-09-06T20:46:42.517Z,27.55
2023-09-06T20:49:12.899Z,27.58
2023-09-06T20:51:39.968Z,27.57
2023-09-06T20:54:07.540Z,27.54
2023-09-06T20:56:34.789Z,27.57
2023-09-06T20:59:01.952Z,27.54
2023-09-06T21:01:29.422Z,27.53
2023-09-06T21:03:57.092Z,27.55
2023-09-06T21:06:25.403Z,27.60
2023-09-06T21:08:53.502Z,27.56
2023-09-06T21:11:20.752Z,27.57
2023-09-06T21:13:47.785Z,27.59
2023-09-06T21:16:14.979Z,27.58
2023-09-06T21:18:42.210Z,27.60
2023-09-06T21:21:09.629Z,27.61
2023-09-06T21:23:37.743Z,27.59
2023-09-06T21:26:11.662Z,27.60
2023-09-06T21:28:38.739Z,27.56
2023-09-06T21:31:05.885Z,27.55
2023-09-06T21:33:33.469Z,27.57
2023-09-06T21:36:00.658Z,27.59
2023-09-06T21:38:27.950Z,27.52
2023-09-06T21:40:56.593Z,27.53
2023-09-06T21:43:23.805Z,27.51
2023-09-06T21:45:51.362Z,27.50
2023-09-06T21:48:18.548Z,27.45
2023-09-06T21:50:48.566Z,27.46
2023-09-06T21:53:15.912Z,27.41
2023-09-06T21:55:42.918Z,27.38
2023-09-06T21:58:11.460Z,27.37
2023-09-06T22:00:40.291Z,27.36
2023-09-06T22:03:26.357Z,27.33
2023-09-06T22:06:12.130Z,27.29
2023-09-06T22:08:57.908Z,27.26
2023-09-06T22:11:45.121Z,27.24
2023-09-06T22:14:12.078Z,27.25
2023-09-06T22:16:39.194Z,27.20
2023-09-06T22:19:07.730Z,27.21
2023-09-06T22:21:35.855Z,27.17
2023-09-06T22:24:03.113Z,27.20
2023-09-06T22:26:30.279Z,27.17
2023-09-06T22:29:01.274Z,27.20
2023-09-06T22:31:30.273Z,27.14
2023-09-06T22:33:57.613Z,27.13
2023-09-06T22:36:25.569Z,27.13
2023-09-06T22:38:52.822Z,27.12
2023-09-06T22:41:19.926Z,27.09
2023-09-06T22:43:50.073Z,27.11
2023-09-06T22:46:17.554Z,27.07
2023-09-06T22:48:54.603Z,27.07
2023-09-06T22:51:22.883Z,27.04
2023-09-06T22:53:50.235Z,27.00
2023-09-06T22:56:17.255Z,26.97
2023-09-06T22:58:44.292Z,26.96
2023-09-06T23:01:11.896Z,26.98
2023-09-06T23:03:39.082Z,26.95
2023-09-06T23:06:08.274Z,26.93
2023-09-06T23:08:36.325Z,26.89
2023-09-06T23:11:05.602Z,26.88
2023-09-06T23:13:32.769Z,26.92
2023-09-06T23:16:00.250Z,26.88
2023-09-06T23:18:28.305Z,26.87
2023-09-06T23:20:57.199Z,26.85
2023-09-06T23:23:26.369Z,26.82
2023-09-06T23:25:53.933Z,26.76
2023-09-06T23:28:27.779Z,26.72
2023-09-06T23:30:56.804Z,26.70
2023-09-06T23:33:45.098Z,26.69
2023-09-06T23:36:18.736Z,26.67
2023-09-06T23:38:49.315Z,26.63
2023-09-06T23:41:20.820Z,26.63
2023-09-06T23:43:49.091Z,26.63
2023-09-06T23:46:18.329Z,26.58
2023-09-06T23:48:46.429Z,26.64
2023-09-06T23:51:13.642Z,26.60
2023-09-06T23:53:41.627Z,26.58
2023-09-06T23:56:08.819Z,26.59
2023-09-06T23:58:35.968Z,26.58
